createdAt,value
2018-09-19T00:00:16.228Z,5.07
2018-09-19T00:02:43.084Z,5.47
2018-09-19T00:05:09.934Z,6.20
2018-09-19T00:07:36.900Z,5.30
2018-09-19T00:10:03.919Z,5.50
2018-09-19T00:12:30.879Z,5.53
2018-09-19T00:14:57.845Z,5.37
2018-09-19T00:17:24.792Z,5.90
2018-09-19T00:19:51.791Z,5.00
2018-09-19T00:22:18.703Z,5.50
2018-09-19T00:24:45.671Z,5.43
2018-09-19T00:27:12.673Z,5.00
2018-09-19T00:29:39.548Z,5.67
2018-09-19T00:32:06.503Z,5.90
2018-09-19T00:34:33.453Z,5.40
2018-09-19T00:37:00.377Z,5.67
2018-09-19T00:39:27.387Z,5.00
2018-09-19T00:41:54.276Z,5.10
2018-09-19T00:44:21.144Z,5.27
2018-09-19T00:46:48.022Z,5.90
2018-09-19T00:49:14.918Z,5.10
2018-09-19T00:51:41.791Z,5.40
2018-09-19T00:54:08.745Z,5.60
2018-09-19T00:56:35.715Z,5.40
2018-09-19T00:59:02.680Z,5.20
2018-09-19T01:01:29.692Z,5.33
2018-09-19T01:03:56.592Z,6.27
2018-09-19T01:06:23.557Z,5.30
2018-09-19T01:08:50.491Z,5.60
2018-09-19T01:11:17.446Z,5.67
2018-09-19T01:13:44.343Z,6.60
2018-09-19T01:16:11.197Z,5.80
2018-09-19T01:18:38.130Z,6.07
2018-09-19T01:21:05.180Z,5.57
2018-09-19T01:23:32.031Z,5.90
2018-09-19T01:25:58.899Z,6.00
2018-09-19T01:28:26.802Z,5.30
2018-09-19T01:30:53.779Z,5.30
2018-09-19T01:33:20.708Z,5.60
2018-09-19T01:35:47.658Z,5.57
2018-09-19T01:38:14.589Z,5.40
2018-09-19T01:40:41.632Z,6.08
2018-09-19T01:43:08.537Z,6.00
2018-09-19T01:45:35.476Z,5.47
2018-09-19T01:48:02.435Z,6.30
2018-09-19T01:50:29.384Z,5.57
2018-09-19T01:52:56.306Z,5.70
2018-09-19T01:55:23.191Z,5.33
2018-09-19T01:57:50.159Z,5.33
2018-09-19T02:00:17.115Z,6.23
2018-09-19T02:02:44.089Z,6.33
2018-09-19T02:05:11.013Z,5.97
2018-09-19T02:07:37.908Z,6.13
2018-09-19T02:10:04.992Z,5.50
2018-09-19T02:12:31.900Z,5.50
2018-09-19T02:14:58.873Z,5.60
2018-09-19T02:17:25.746Z,6.00
2018-09-19T02:19:52.664Z,4.73
2018-09-19T02:22:19.635Z,5.27
2018-09-19T02:24:46.595Z,5.80
2018-09-19T02:27:13.464Z,5.80
2018-09-19T02:29:40.395Z,5.50
2018-09-19T02:32:07.387Z,5.63
2018-09-19T02:34:34.319Z,6.10
2018-09-19T02:37:01.275Z,5.60
2018-09-19T02:39:28.197Z,5.77
2018-09-19T02:41:55.106Z,5.60
2018-09-19T02:44:22.079Z,5.40
2018-09-19T02:46:49.060Z,5.60
2018-09-19T02:49:16.006Z,5.90
2018-09-19T02:51:42.954Z,6.53
2018-09-19T02:54:09.911Z,6.20
2018-09-19T02:56:36.835Z,6.27
2018-09-19T02:59:04.715Z,5.57
2018-09-19T03:01:31.566Z,5.60
2018-09-19T03:03:58.528Z,5.93
2018-09-19T03:06:26.315Z,6.70
2018-09-19T03:08:53.317Z,5.80
2018-09-19T03:11:20.221Z,5.70
2018-09-19T03:13:47.170Z,6.07
2018-09-19T03:16:15.051Z,6.30
2018-09-19T03:18:41.998Z,6.17
2018-09-19T03:21:08.862Z,5.83
2018-09-19T03:23:36.045Z,6.50
2018-09-19T03:26:02.989Z,6.17
2018-09-19T03:28:29.924Z,6.90
2018-09-19T03:30:56.818Z,6.77
2018-09-19T03:33:23.744Z,6.40
2018-09-19T03:35:50.732Z,6.20
2018-09-19T03:38:17.692Z,6.20
2018-09-19T03:40:44.638Z,5.77
2018-09-19T03:43:11.679Z,6.50
2018-09-19T03:45:38.882Z,6.23
2018-09-19T03:48:05.790Z,6.87
2018-09-19T03:50:32.755Z,6.55
2018-09-19T03:52:59.696Z,6.40
2018-09-19T03:55:26.592Z,6.60
2018-09-19T03:57:53.539Z,7.07
2018-09-19T04:00:20.477Z,5.70
2018-09-19T04:02:47.494Z,6.50
2018-09-19T04:05:14.437Z,6.30
2018-09-19T04:07:41.388Z,7.70
2018-09-19T04:10:08.318Z,6.10
2018-09-19T04:12:35.332Z,6.53
2018-09-19T04:15:02.235Z,6.33
2018-09-19T04:17:29.089Z,7.27
2018-09-19T04:19:56.079Z,6.70
2018-09-19T04:22:23.096Z,7.03
2018-09-19T04:24:50.147Z,7.10
2018-09-19T04:27:18.611Z,7.33
2018-09-19T04:29:45.546Z,6.30
2018-09-19T04:32:12.500Z,7.55
2018-09-19T04:34:39.434Z,7.40
2018-09-19T04:37:06.416Z,7.13
2018-09-19T04:39:33.360Z,7.27
2018-09-19T04:42:00.318Z,6.93
2018-09-19T04:44:27.255Z,7.10
2018-09-19T04:46:54.232Z,7.50
2018-09-19T04:49:21.195Z,7.57
2018-09-19T04:51:48.093Z,7.10
2018-09-19T04:54:15.016Z,7.30
2018-09-19T04:56:42.971Z,7.40
2018-09-19T04:59:09.925Z,7.87
2018-09-19T05:01:36.866Z,6.77
2018-09-19T05:04:03.878Z,7.33
2018-09-19T05:06:30.791Z,7.27
2018-09-19T05:08:57.768Z,8.20
2018-09-19T05:11:24.714Z,7.77
2018-09-19T05:13:51.719Z,8.03
2018-09-19T05:16:19.016Z,7.70
2018-09-19T05:18:45.887Z,7.90
2018-09-19T05:21:12.857Z,7.47
2018-09-19T05:23:39.801Z,7.30
2018-09-19T05:26:06.707Z,7.63
2018-09-19T05:28:33.619Z,8.23
2018-09-19T05:31:00.683Z,8.60
2018-09-19T05:33:27.547Z,7.87
2018-09-19T05:35:54.484Z,8.10
2018-09-19T05:38:21.468Z,8.50
2018-09-19T05:40:48.531Z,8.07
2018-09-19T05:43:15.473Z,8.07
2018-09-19T05:45:42.428Z,7.87
2018-09-19T05:48:09.367Z,8.60
2018-09-19T05:50:36.467Z,7.83
2018-09-19T05:53:03.407Z,7.27
2018-09-19T05:55:30.251Z,7.60
2018-09-19T05:57:57.198Z,8.00
2018-09-19T06:00:24.175Z,7.33
2018-09-19T06:02:51.126Z,7.43
2018-09-19T06:05:17.964Z,7.60
2018-09-19T06:07:44.927Z,7.83
2018-09-19T06:10:11.882Z,7.70
2018-09-19T06:12:38.874Z,8.40
2018-09-19T06:15:05.813Z,8.50
2018-09-19T06:17:32.907Z,7.90
2018-09-19T06:19:59.831Z,7.80
2018-09-19T06:22:26.778Z,7.90
2018-09-19T06:24:53.741Z,8.53
2018-09-19T06:27:20.595Z,7.63
2018-09-19T06:29:47.543Z,7.60
2018-09-19T06:32:14.519Z,6.93
2018-09-19T06:34:41.493Z,8.27
2018-09-19T06:37:08.412Z,7.70
2018-09-19T06:39:35.307Z,8.07
2018-09-19T06:42:02.244Z,8.30
2018-09-19T06:44:29.191Z,7.20
2018-09-19T06:46:56.096Z,8.03
2018-09-19T06:49:22.920Z,8.65
2018-09-19T06:51:49.854Z,7.40
2018-09-19T06:54:16.810Z,8.43
2018-09-19T06:56:43.767Z,7.47
2018-09-19T06:59:10.631Z,7.97
2018-09-19T07:01:37.591Z,7.47
2018-09-19T07:04:04.799Z,7.53
2018-09-19T07:06:31.701Z,7.27
2018-09-19T07:08:58.670Z,8.30
2018-09-19T07:11:25.639Z,7.27
2018-09-19T07:13:52.579Z,7.23
2018-09-19T07:16:19.447Z,8.10
2018-09-19T07:18:46.448Z,7.20
2018-09-19T07:21:13.303Z,7.57
2018-09-19T07:23:40.236Z,7.67
2018-09-19T07:26:07.198Z,7.80
2018-09-19T07:28:35.165Z,7.40
2018-09-19T07:31:02.196Z,7.13
2018-09-19T07:33:29.078Z,7.50
2018-09-19T07:35:56.019Z,7.20
2018-09-19T07:38:23.050Z,6.90
2018-09-19T07:40:49.925Z,7.70
2018-09-19T07:43:16.878Z,7.40
2018-09-19T07:45:43.872Z,6.30
2018-09-19T07:48:10.808Z,7.17
2018-09-19T07:50:37.780Z,6.97
2018-09-19T07:53:04.739Z,7.30
2018-09-19T07:55:32.744Z,6.77
2018-09-19T07:57:59.944Z,6.93
2018-09-19T08:00:26.905Z,8.00
2018-09-19T08:02:53.828Z,7.83
2018-09-19T08:05:20.699Z,8.13
2018-09-19T08:07:47.587Z,7.23
2018-09-19T08:10:14.552Z,6.50
2018-09-19T08:12:41.516Z,7.17
2018-09-19T08:15:08.470Z,7.57
2018-09-19T08:17:35.445Z,7.83
2018-09-19T08:20:02.379Z,7.00
2018-09-19T08:22:29.355Z,6.60
2018-09-19T08:24:56.288Z,7.20
2018-09-19T08:27:23.262Z,6.43
2018-09-19T08:29:50.215Z,8.27
2018-09-19T08:32:17.159Z,6.87
2018-09-19T08:34:44.124Z,6.23
2018-09-19T08:37:10.990Z,7.47
2018-09-19T08:39:37.960Z,6.47
2018-09-19T08:42:04.904Z,7.43
2018-09-19T08:44:31.875Z,7.20
2018-09-19T08:46:58.747Z,5.70
2018-09-19T08:49:25.666Z,6.40
2018-09-19T08:51:52.660Z,6.80
2018-09-19T08:54:19.592Z,6.93
2018-09-19T08:56:46.538Z,6.28
2018-09-19T08:59:13.497Z,5.70
2018-09-19T09:01:40.513Z,6.40
2018-09-19T09:04:07.435Z,6.17
2018-09-19T09:06:34.372Z,6.00
2018-09-19T09:09:01.316Z,5.57
2018-09-19T09:11:28.324Z,6.20
2018-09-19T09:13:55.256Z,5.90
2018-09-19T09:16:22.197Z,5.50
2018-09-19T09:18:49.160Z,5.33
2018-09-19T09:21:16.104Z,4.80
2018-09-19T09:23:43.069Z,4.90
2018-09-19T09:26:10.040Z,5.90
2018-09-19T09:28:36.998Z,5.60
2018-09-19T09:31:04.125Z,5.40
2018-09-19T09:33:31.000Z,4.30
2018-09-19T09:35:58.025Z,4.30
2018-09-19T09:38:24.933Z,4.40
2018-09-19T09:40:51.877Z,4.30
2018-09-19T09:43:18.779Z,4.50
2018-09-19T09:45:45.693Z,3.70
2018-09-19T09:48:12.643Z,4.00
2018-09-19T09:50:39.606Z,4.00
2018-09-19T09:53:06.586Z,3.80
2018-09-19T09:55:33.512Z,4.47
2018-09-19T09:58:00.536Z,3.80
2018-09-19T10:00:33.105Z,4.17
2018-09-19T10:03:00.123Z,3.53
2018-09-19T10:05:27.169Z,3.40
2018-09-19T10:07:54.107Z,3.47
2018-09-19T10:10:21.024Z,3.77
2018-09-19T10:12:47.976Z,3.90
2018-09-19T10:15:14.879Z,3.60
2018-09-19T10:17:41.786Z,4.20
2018-09-19T10:20:08.723Z,3.80
2018-09-19T10:22:35.679Z,3.20
2018-09-19T10:25:02.537Z,4.00
2018-09-19T10:27:29.495Z,4.03
2018-09-19T10:29:56.474Z,4.30
2018-09-19T10:32:24.210Z,4.00
2018-09-19T10:34:51.119Z,3.93
2018-09-19T10:37:18.137Z,3.77
2018-09-19T10:39:45.134Z,3.80
2018-09-19T10:42:12.059Z,4.00
2018-09-19T10:44:39.050Z,3.80
2018-09-19T10:47:05.958Z,3.53
2018-09-19T10:49:32.904Z,4.30
2018-09-19T10:51:59.814Z,3.57
2018-09-19T10:54:26.764Z,2.83
2018-09-19T10:56:53.690Z,2.97
2018-09-19T10:59:20.576Z,2.90
2018-09-19T11:01:47.540Z,2.53
2018-09-19T11:04:14.495Z,3.10
2018-09-19T11:06:41.480Z,2.87
2018-09-19T11:09:09.695Z,2.70
2018-09-19T11:11:37.043Z,3.30
2018-09-19T11:14:03.975Z,2.63
2018-09-19T11:16:30.924Z,3.60
2018-09-19T11:18:57.809Z,3.00
2018-09-19T11:21:24.754Z,3.17
2018-09-19T11:23:52.113Z,2.90
2018-09-19T11:26:19.058Z,3.00
2018-09-19T11:28:46.019Z,3.00
2018-09-19T11:31:12.981Z,3.30
2018-09-19T11:33:40.894Z,3.13
2018-09-19T11:36:07.804Z,2.80
2018-09-19T11:38:34.799Z,2.90
2018-09-19T11:41:01.756Z,3.30
2018-09-19T11:43:28.659Z,2.60
2018-09-19T11:45:55.539Z,3.50
2018-09-19T11:48:22.541Z,3.40
2018-09-19T11:50:49.509Z,4.00
2018-09-19T11:53:23.432Z,3.70
2018-09-19T11:55:50.539Z,3.20
2018-09-19T11:58:17.483Z,3.30
2018-09-19T12:00:44.443Z,3.70
2018-09-19T12:03:11.439Z,3.93
2018-09-19T12:05:38.343Z,3.97
2018-09-19T12:08:05.443Z,3.87
2018-09-19T12:10:32.346Z,3.30
2018-09-19T12:12:59.311Z,3.50
2018-09-19T12:15:26.267Z,3.73
2018-09-19T12:17:53.239Z,3.27
2018-09-19T12:20:20.186Z,3.27
2018-09-19T12:22:47.167Z,3.30
2018-09-19T12:25:14.032Z,3.43
2018-09-19T12:27:41.036Z,3.23
2018-09-19T12:30:07.974Z,3.80
2018-09-19T12:32:34.911Z,3.07
2018-09-19T12:35:01.833Z,2.97
2018-09-19T12:37:28.807Z,3.70
2018-09-19T12:39:55.680Z,3.00
2018-09-19T12:42:22.611Z,3.13
2018-09-19T12:44:49.588Z,3.27
2018-09-19T12:47:16.455Z,3.23
2018-09-19T12:49:43.413Z,3.83
2018-09-19T12:52:10.359Z,3.50
2018-09-19T12:54:37.287Z,3.47
2018-09-19T12:57:04.267Z,3.40
2018-09-19T12:59:31.237Z,3.67
2018-09-19T13:01:58.099Z,3.40
2018-09-19T13:04:25.036Z,3.20
2018-09-19T13:06:51.982Z,3.50
2018-09-19T13:09:19.971Z,3.23
2018-09-19T13:11:46.935Z,2.93
2018-09-19T13:14:13.926Z,3.33
2018-09-19T13:16:40.807Z,3.20
2018-09-19T13:19:07.687Z,3.47
2018-09-19T13:21:34.664Z,3.13
2018-09-19T13:24:01.695Z,3.40
2018-09-19T13:26:28.792Z,3.60
2018-09-19T13:28:55.765Z,2.83
2018-09-19T13:31:22.692Z,3.00
2018-09-19T13:33:49.627Z,3.40
2018-09-19T13:36:16.614Z,2.90
2018-09-19T13:38:43.551Z,3.07
2018-09-19T13:41:10.648Z,3.17
2018-09-19T13:43:37.770Z,3.47
2018-09-19T13:46:04.747Z,3.70
2018-09-19T13:48:31.698Z,3.33
2018-09-19T13:51:07.854Z,3.63
2018-09-19T13:53:34.835Z,2.80
2018-09-19T13:56:01.956Z,3.30
2018-09-19T13:58:29.000Z,3.20
2018-09-19T14:00:55.964Z,2.80
2018-09-19T14:03:22.919Z,3.30
2018-09-19T14:05:49.811Z,2.90
2018-09-19T14:08:16.803Z,3.20
2018-09-19T14:10:43.764Z,3.20
2018-09-19T14:13:10.680Z,3.05
2018-09-19T14:15:40.380Z,3.30
2018-09-19T14:18:09.465Z,3.10
2018-09-19T14:20:38.096Z,2.97
2018-09-19T14:23:06.286Z,3.13
2018-09-19T14:25:34.519Z,3.10
2018-09-19T14:28:01.503Z,3.63
2018-09-19T14:30:28.492Z,3.08
2018-09-19T14:32:55.379Z,3.10
2018-09-19T14:35:22.324Z,3.07
2018-09-19T14:37:49.344Z,2.90
2018-09-19T14:40:16.346Z,2.73
2018-09-19T14:42:44.256Z,2.70
2018-09-19T14:45:17.604Z,2.97
2018-09-19T14:47:50.958Z,3.63
2018-09-19T14:50:22.290Z,2.60
2018-09-19T14:52:54.498Z,3.07
2018-09-19T14:55:21.359Z,3.80
2018-09-19T14:57:48.412Z,4.60
2018-09-19T15:00:15.346Z,3.70
2018-09-19T15:02:42.339Z,3.53
2018-09-19T15:05:09.315Z,3.30
2018-09-19T15:07:36.207Z,3.20
2018-09-19T15:10:03.187Z,3.33
2018-09-19T15:12:30.134Z,3.40
2018-09-19T15:14:57.110Z,3.40
2018-09-19T15:17:24.053Z,3.77
2018-09-19T15:19:51.036Z,3.60
2018-09-19T15:22:17.967Z,3.10
2018-09-19T15:24:44.924Z,3.70
2018-09-19T15:27:12.316Z,3.77
2018-09-19T15:29:39.335Z,3.20
2018-09-19T15:32:06.280Z,3.47
2018-09-19T15:34:33.269Z,3.43
2018-09-19T15:37:00.221Z,4.17
2018-09-19T15:39:27.078Z,3.40
2018-09-19T15:41:54.140Z,4.00
2018-09-19T15:44:21.150Z,3.63
2018-09-19T15:46:48.081Z,3.50
2018-09-19T15:49:15.095Z,3.67
2018-09-19T15:51:41.972Z,3.90
2018-09-19T15:54:08.975Z,3.50
2018-09-19T15:56:35.940Z,3.60
2018-09-19T15:59:02.891Z,3.60
2018-09-19T16:01:30.009Z,3.90
2018-09-19T16:03:57.015Z,4.13
2018-09-19T16:06:23.939Z,4.40
2018-09-19T16:08:50.863Z,3.50
2018-09-19T16:11:18.013Z,4.20
2018-09-19T16:13:44.867Z,3.87
2018-09-19T16:16:11.876Z,3.77
2018-09-19T16:18:38.792Z,3.60
2018-09-19T16:21:05.872Z,4.00
2018-09-19T16:23:32.723Z,3.00
2018-09-19T16:25:59.687Z,4.03
2018-09-19T16:28:26.654Z,3.60
2018-09-19T16:30:53.627Z,4.03
2018-09-19T16:33:20.535Z,3.73
2018-09-19T16:35:47.483Z,3.80
2018-09-19T16:38:14.447Z,3.53
2018-09-19T16:40:41.431Z,3.77
2018-09-19T16:43:08.478Z,3.63
2018-09-19T16:45:35.383Z,3.43
2018-09-19T16:48:02.299Z,3.70
2018-09-19T16:50:29.268Z,4.20
2018-09-19T16:52:56.404Z,3.47
2018-09-19T16:55:23.217Z,4.03
2018-09-19T16:57:51.259Z,3.60
2018-09-19T17:00:18.204Z,4.03
2018-09-19T17:02:45.176Z,4.10
2018-09-19T17:05:12.476Z,4.37
2018-09-19T17:07:39.367Z,3.80
2018-09-19T17:10:06.335Z,4.47
2018-09-19T17:12:33.506Z,4.17
2018-09-19T17:15:00.522Z,4.30
2018-09-19T17:17:27.472Z,4.00
2018-09-19T17:19:54.380Z,5.10
2018-09-19T17:22:21.352Z,4.55
2018-09-19T17:24:48.275Z,4.93
2018-09-19T17:27:15.159Z,5.37
2018-09-19T17:29:42.091Z,4.33
2018-09-19T17:32:09.067Z,3.50
2018-09-19T17:34:36.027Z,4.37
2018-09-19T17:37:03.020Z,4.20
2018-09-19T17:39:29.891Z,4.27
2018-09-19T17:41:56.796Z,4.05
2018-09-19T17:44:23.858Z,4.40
2018-09-19T17:46:51.395Z,4.80
2018-09-19T17:49:18.278Z,4.70
2018-09-19T17:51:45.256Z,5.07
2018-09-19T17:54:12.181Z,4.70
2018-09-19T17:56:39.169Z,5.57
2018-09-19T17:59:06.126Z,4.80
2018-09-19T18:01:33.009Z,5.63
2018-09-19T18:04:00.017Z,5.13
2018-09-19T18:06:27.004Z,5.33
2018-09-19T18:08:53.973Z,5.93
2018-09-19T18:11:20.902Z,5.80
2018-09-19T18:13:47.880Z,5.00
2018-09-19T18:16:14.792Z,4.70
2018-09-19T18:18:41.800Z,5.40
2018-09-19T18:21:08.771Z,4.93
2018-09-19T18:23:35.675Z,5.80
2018-09-19T18:26:02.645Z,6.10
2018-09-19T18:28:29.589Z,5.60
2018-09-19T18:30:56.538Z,6.10
2018-09-19T18:33:23.421Z,5.03
2018-09-19T18:35:50.340Z,5.60
2018-09-19T18:38:17.375Z,5.03
2018-09-19T18:40:44.264Z,5.93
2018-09-19T18:43:11.231Z,5.10
2018-09-19T18:45:38.163Z,5.90
2018-09-19T18:48:05.052Z,4.80
2018-09-19T18:50:32.040Z,5.63
2018-09-19T18:52:58.984Z,5.90
2018-09-19T18:55:25.976Z,5.67
2018-09-19T18:57:52.895Z,6.17
2018-09-19T19:00:19.853Z,5.57
2018-09-19T19:02:46.779Z,5.57
2018-09-19T19:05:14.714Z,5.47
2018-09-19T19:07:41.590Z,5.57
2018-09-19T19:10:08.480Z,6.70
2018-09-19T19:12:35.458Z,6.07
2018-09-19T19:15:02.388Z,6.50
2018-09-19T19:17:29.372Z,6.40
2018-09-19T19:19:56.312Z,5.70
2018-09-19T19:22:23.284Z,6.17
2018-09-19T19:24:50.227Z,5.80
2018-09-19T19:27:17.183Z,5.90
2018-09-19T19:29:44.089Z,5.70
2018-09-19T19:32:11.008Z,6.00
2018-09-19T19:34:38.968Z,5.97
2018-09-19T19:37:06.597Z,6.70
2018-09-19T19:39:33.528Z,6.03
2018-09-19T19:42:00.651Z,7.10
2018-09-19T19:44:27.693Z,6.60
2018-09-19T19:46:54.585Z,7.20
2018-09-19T19:49:22.188Z,6.20
2018-09-19T19:51:49.071Z,7.10
2018-09-19T19:54:18.169Z,7.63
2018-09-19T19:56:45.104Z,7.47
2018-09-19T19:59:12.605Z,7.57
2018-09-19T20:01:38.995Z,7.20
2018-09-19T20:04:05.904Z,7.13
2018-09-19T20:06:32.856Z,7.10
2018-09-19T20:08:59.809Z,7.07
2018-09-19T20:11:26.680Z,7.73
2018-09-19T20:13:53.616Z,8.68
2018-09-19T20:16:20.606Z,8.30
2018-09-19T20:18:47.493Z,8.40
2018-09-19T20:21:14.492Z,8.30
2018-09-19T20:23:41.396Z,8.00
2018-09-19T20:26:08.365Z,7.60
2018-09-19T20:28:35.330Z,7.17
2018-09-19T20:31:02.555Z,7.67
2018-09-19T20:33:29.476Z,8.17
2018-09-19T20:35:56.356Z,8.00
2018-09-19T20:38:23.243Z,8.73
2018-09-19T20:40:50.251Z,8.50
2018-09-19T20:43:17.220Z,8.90
2018-09-19T20:45:44.207Z,8.60
2018-09-19T20:48:11.067Z,8.63
2018-09-19T20:50:38.030Z,8.27
2018-09-19T20:53:04.984Z,7.87
2018-09-19T20:55:31.967Z,6.70
2018-09-19T20:57:58.828Z,7.33
2018-09-19T21:00:25.763Z,8.70
2018-09-19T21:02:52.731Z,7.87
2018-09-19T21:05:19.685Z,8.63
2018-09-19T21:07:46.588Z,7.20
2018-09-19T21:10:13.489Z,7.53
2018-09-19T21:12:40.445Z,7.00
2018-09-19T21:15:07.398Z,7.43
2018-09-19T21:17:34.375Z,7.03
2018-09-19T21:20:01.320Z,6.87
2018-09-19T21:22:28.414Z,6.90
2018-09-19T21:24:55.223Z,6.60
2018-09-19T21:27:22.187Z,7.77
2018-09-19T21:29:49.148Z,7.73
2018-09-19T21:32:16.292Z,7.30
2018-09-19T21:34:43.178Z,7.50
2018-09-19T21:37:10.112Z,7.60
2018-09-19T21:39:36.959Z,8.23
2018-09-19T21:42:03.827Z,7.90
2018-09-19T21:44:30.783Z,7.57
2018-09-19T21:46:57.742Z,7.93
2018-09-19T21:49:24.696Z,8.87
2018-09-19T21:51:51.655Z,7.53
2018-09-19T21:54:18.640Z,7.37
2018-09-19T21:56:45.595Z,7.60
2018-09-19T21:59:12.523Z,7.90
2018-09-19T22:01:41.419Z,7.50
2018-09-19T22:04:08.371Z,7.33
2018-09-19T22:06:35.299Z,8.17
2018-09-19T22:09:02.202Z,7.70
2018-09-19T22:11:29.059Z,9.20
2018-09-19T22:13:56.063Z,7.40
2018-09-19T22:16:22.934Z,8.33
2018-09-19T22:18:49.866Z,8.68
2018-09-19T22:21:16.731Z,8.23
2018-09-19T22:23:43.665Z,7.70
2018-09-19T22:26:10.523Z,8.90
2018-09-19T22:28:37.460Z,7.90
2018-09-19T22:31:04.660Z,7.87
2018-09-19T22:33:31.546Z,8.47
2018-09-19T22:35:58.431Z,8.27
2018-09-19T22:38:25.380Z,8.53
2018-09-19T22:40:52.416Z,7.53
2018-09-19T22:43:19.369Z,8.20
2018-09-19T22:45:46.275Z,7.90
2018-09-19T22:48:13.235Z,7.47
2018-09-19T22:50:40.196Z,8.00
2018-09-19T22:53:07.175Z,9.25
2018-09-19T22:55:34.142Z,8.37
2018-09-19T22:58:00.992Z,8.23
2018-09-19T23:00:27.900Z,7.30
2018-09-19T23:02:54.859Z,7.60
2018-09-19T23:05:21.724Z,7.90
2018-09-19T23:07:48.697Z,7.67
2018-09-19T23:10:15.636Z,6.87
2018-09-19T23:12:42.583Z,6.50
2018-09-19T23:15:09.448Z,6.87
2018-09-19T23:17:36.400Z,8.00
2018-09-19T23:20:04.103Z,8.10
2018-09-19T23:22:31.031Z,7.60
2018-09-19T23:24:57.896Z,7.97
2018-09-19T23:27:24.843Z,7.83
2018-09-19T23:29:51.820Z,7.17
2018-09-19T23:32:18.767Z,7.23
2018-09-19T23:34:45.730Z,8.70
2018-09-19T23:37:12.675Z,7.87
2018-09-19T23:39:39.651Z,7.20
2018-09-19T23:42:06.876Z,7.53
2018-09-19T23:44:33.747Z,7.87
2018-09-19T23:47:00.715Z,6.40
2018-09-19T23:49:27.671Z,7.40
2018-09-19T23:51:54.633Z,8.00
2018-09-19T23:54:21.591Z,7.90
2018-09-19T23:56:48.604Z,8.20
2018-09-19T23:59:15.464Z,8.20
